Time;durP1;ratioP1;P1;durP2;ratioP2;P2;SDS_P1;SDS_P2;PMS_P1;PMS_P2;Temp;Humidity;BMP_temperature;BMP_pressure;BME280_temperature;BME280_humidity;BME280_pressure;Samples;Min_cycle;Max_cycle;Signal;HPM_P1;HPM_P2
2022/11/10 00:00:01;;;;;;;22.95;12.70;;;;;;;8.45;100.00;101597.78;5050203;28;20025;-63
2022/11/10 00:02:26;;;;;;;23.80;13.70;;;;;;;8.43;100.00;101601.63;5050244;28;20025;-62
2022/11/10 00:04:51;;;;;;;23.42;12.70;;;;;;;8.42;100.00;101597.22;5050384;28;20484;-62
2022/11/10 00:07:16;;;;;;;23.52;12.88;;;;;;;8.37;100.00;101599.94;5050470;28;20044;-62
2022/11/10 00:09:42;;;;;;;22.42;13.18;;;;;;;8.38;100.00;101598.84;5050585;28;20104;-63
2022/11/10 00:12:07;;;;;;;25.13;13.65;;;;;;;8.38;100.00;101601.59;5050621;28;20518;-62
2022/11/10 00:17:16;;;;;;;21.85;13.25;;;;;;;8.38;100.00;101598.84;5050561;28;20102;-61
2022/11/10 00:19:41;;;;;;;21.10;12.48;;;;;;;8.36;100.00;101600.22;5050095;28;20049;-63
2022/11/10 00:22:07;;;;;;;21.67;12.93;;;;;;;8.39;100.00;101596.94;5049953;28;20029;-62
2022/11/10 00:24:32;;;;;;;21.88;13.18;;;;;;;8.35;100.00;101601.31;5049631;28;20461;-62
2022/11/10 00:26:57;;;;;;;21.40;13.65;;;;;;;8.34;100.00;101607.94;5049787;28;20021;-62
2022/11/10 00:29:22;;;;;;;23.55;13.27;;;;;;;8.35;100.00;101606.84;5049812;28;20048;-62
2022/11/10 00:31:48;;;;;;;21.55;13.10;;;;;;;8.30;100.00;101615.09;5049962;28;20025;-62
2022/11/10 00:34:15;;;;;;;24.23;13.52;;;;;;;8.26;100.00;101610.13;5049720;28;20211;-60
2022/11/10 00:36:42;;;;;;;25.48;13.90;;;;;;;8.27;100.00;101617.31;5049756;28;20151;-63
2022/11/10 00:39:07;;;;;;;28.73;13.40;;;;;;;8.23;100.00;101626.38;5049594;28;20045;-63
2022/11/10 00:41:33;;;;;;;24.60;13.60;;;;;;;8.22;100.00;101622.78;5049864;28;20021;-62
2022/11/10 00:43:59;;;;;;;23.73;13.43;;;;;;;8.25;100.00;101630.53;5048628;28;20027;-64
2022/11/10 00:46:24;;;;;;;21.02;14.07;;;;;;;8.24;100.00;101634.38;5048260;28;20111;-64
2022/11/10 00:48:49;;;;;;;23.65;13.38;;;;;;;8.23;100.00;101629.94;5049948;28;20025;-62
2022/11/10 00:51:28;;;;;;;24.35;13.60;;;;;;;8.23;100.00;101632.72;5052995;28;20040;-61
2022/11/10 00:53:54;;;;;;;24.42;13.32;;;;;;;8.19;100.00;101636.28;5053491;28;20029;-63
2022/11/10 00:56:21;;;;;;;22.98;12.95;;;;;;;8.20;100.00;101637.94;5053213;28;20484;-62
2022/11/10 00:58:47;;;;;;;24.70;13.57;;;;;;;8.17;100.00;101627.47;5053414;28;20028;-62
2022/11/10 01:01:14;;;;;;;23.10;13.90;;;;;;;8.19;100.00;101633.53;5052937;28;20082;-63
2022/11/10 01:03:39;;;;;;;24.00;13.73;;;;;;;8.16;100.00;101629.38;5052721;28;20041;-62
2022/11/10 01:06:11;;;;;;;22.02;13.65;;;;;;;8.18;100.00;101640.97;5052704;28;20087;-62
2022/11/10 01:08:38;;;;;;;23.30;14.45;;;;;;;8.14;100.00;101631.56;5053042;28;20103;-62
2022/11/10 01:11:05;;;;;;;24.38;13.57;;;;;;;8.11;100.00;101629.38;5053590;28;20108;-61
2022/11/10 01:13:31;;;;;;;25.23;13.60;;;;;;;8.08;100.00;101644.50;5052930;28;20108;-62
2022/11/10 01:16:02;;;;;;;25.83;14.13;;;;;;;8.05;100.00;101633.19;5052791;28;20033;-62
2022/11/10 01:18:27;;;;;;;24.20;13.52;;;;;;;8.09;100.00;101646.16;5052659;28;20036;-61
2022/11/10 01:20:53;;;;;;;23.67;13.60;;;;;;;8.10;100.00;101652.53;5052732;28;20017;-61
2022/11/10 01:23:18;;;;;;;24.70;14.02;;;;;;;8.08;100.00;101662.97;5052461;28;20469;-62
2022/11/10 01:25:44;;;;;;;24.88;14.18;;;;;;;8.10;100.00;101671.81;5052596;28;20039;-63
2022/11/10 01:28:09;;;;;;;21.80;13.45;;;;;;;8.12;100.00;101672.38;5052784;28;20033;-62
2022/11/10 01:30:34;;;;;;;24.13;14.05;;;;;;;8.12;100.00;101675.97;5052542;28;20060;-62
2022/11/10 01:33:00;;;;;;;21.20;13.35;;;;;;;8.12;100.00;101673.19;5052514;28;20367;-63
2022/11/10 01:35:25;;;;;;;25.27;13.90;;;;;;;8.09;100.00;101668.22;5052504;28;20494;-62
2022/11/10 01:37:51;;;;;;;24.02;13.65;;;;;;;8.10;100.00;101682.84;5052099;28;20083;-62
2022/11/10 01:40:17;;;;;;;23.95;13.48;;;;;;;8.06;100.00;101687.22;5031427;28;20592;-62
2022/11/10 01:42:55;;;;;;;23.17;13.70;;;;;;;8.10;100.00;101682.84;5052199;28;20025;-62
2022/11/10 01:45:23;;;;;;;21.60;13.32;;;;;;;8.03;100.00;101680.31;5052331;28;20091;-63
2022/11/10 01:48:01;;;;;;;23.52;14.07;;;;;;;8.02;100.00;101681.41;5052477;28;20032;-63
2022/11/10 01:50:31;;;;;;;23.27;13.55;;;;;;;7.99;100.00;101678.38;5052362;28;20381;-64
2022/11/10 01:52:59;;;;;;;23.85;13.70;;;;;;;8.00;100.00;101666.25;5052160;28;20111;-62
2022/11/10 01:55:26;;;;;;;21.75;13.85;;;;;;;7.96;100.00;101683.31;5051803;28;20503;-63
2022/11/10 01:57:51;;;;;;;24.85;14.20;;;;;;;7.96;100.00;101680.56;5052175;28;20116;-63
2022/11/10 02:00:18;;;;;;;24.13;13.60;;;;;;;7.93;100.00;101683.03;5034260;28;20349;-63
2022/11/10 02:02:53;;;;;;;22.55;14.00;;;;;;;7.89;100.00;101679.97;5050962;28;20032;-63
2022/11/10 02:05:20;;;;;;;26.02;14.60;;;;;;;7.91;100.00;101685.22;5034647;28;20036;-62
2022/11/10 02:07:46;;;;;;;24.50;13.82;;;;;;;7.92;100.00;101684.97;5052282;28;20029;-62
2022/11/10 02:10:16;;;;;;;27.98;15.00;;;;;;;7.89;100.00;101679.13;5051872;28;20110;-63
2022/11/10 02:12:43;;;;;;;24.63;14.15;;;;;;;7.86;100.00;101683.25;5051824;28;20039;-62
2022/11/10 02:15:11;;;;;;;24.25;13.80;;;;;;;7.70;100.00;101657.56;5051593;28;20449;-62
2022/11/10 02:17:37;;;;;;;22.95;14.45;;;;;;;7.86;100.00;101687.97;5051717;28;20094;-63
2022/11/10 02:20:09;;;;;;;25.92;14.70;;;;;;;7.86;100.00;101685.19;5051183;28;20112;-62
2022/11/10 02:22:35;;;;;;;25.70;14.45;;;;;;;7.88;100.00;101691.28;5051548;28;20108;-62
2022/11/10 02:25:01;;;;;;;25.23;14.40;;;;;;;7.86;100.00;101696.22;5051680;28;20025;-62
2022/11/10 02:27:26;;;;;;;23.73;13.75;;;;;;;7.86;100.00;101702.53;5051505;28;20370;-63
2022/11/10 02:29:52;;;;;;;22.45;13.23;;;;;;;7.87;100.00;101712.47;5051238;28;20036;-62
2022/11/10 02:32:17;;;;;;;24.63;14.05;;;;;;;7.91;100.00;101713.63;5033274;28;20151;-63
2022/11/10 02:34:43;;;;;;;24.45;13.02;;;;;;;7.91;100.00;101721.88;5051189;28;20036;-63
2022/11/10 02:37:09;;;;;;;23.85;13.80;;;;;;;7.92;100.00;101720.78;5048182;28;20025;-63
2022/11/10 02:39:35;;;;;;;23.67;14.25;;;;;;;7.95;100.00;101733.19;5033327;28;20438;-63
2022/11/10 02:42:00;;;;;;;24.20;14.52;;;;;;;7.96;100.00;101741.19;5051187;28;20033;-63
2022/11/10 02:44:26;;;;;;;24.48;13.77;;;;;;;7.97;100.00;101731.00;5051127;28;20025;-63
2022/11/10 02:46:51;;;;;;;24.85;14.13;;;;;;;8.01;100.00;101734.88;5051180;28;20051;-65
2022/11/10 02:49:17;;;;;;;23.45;13.50;;;;;;;7.95;100.00;101734.00;5051419;28;20033;-63
2022/11/10 02:51:42;;;;;;;24.33;14.75;;;;;;;7.92;100.00;101722.69;5033041;28;20074;-63
2022/11/10 02:54:07;;;;;;;24.35;13.55;;;;;;;7.92;100.00;101731.81;5050979;28;20487;-63
2022/11/10 02:56:34;;;;;;;22.45;13.70;;;;;;;7.93;100.00;101736.22;5032693;28;20033;-63
2022/11/10 02:58:59;;;;;;;23.35;13.63;;;;;;;7.91;100.00;101732.06;5050644;28;20036;-63
2022/11/10 03:01:25;;;;;;;23.65;13.73;;;;;;;7.90;100.00;101736.75;5050595;28;20037;-62
2022/11/10 03:03:50;;;;;;;24.35;14.30;;;;;;;7.87;100.00;101733.69;5050338;28;20048;-63
2022/11/10 03:06:15;;;;;;;22.10;13.77;;;;;;;7.86;100.00;101751.31;5050274;28;20047;-63
2022/11/10 03:08:41;;;;;;;23.42;13.32;;;;;;;7.83;100.00;101740.81;5051318;28;20417;-63
2022/11/10 03:11:06;;;;;;;22.73;13.57;;;;;;;7.79;100.00;101749.59;5050561;28;20083;-63
2022/11/10 03:13:31;;;;;;;28.45;14.10;;;;;;;7.77;100.00;101746.31;5049303;28;20087;-63
2022/11/10 03:15:57;;;;;;;24.77;14.25;;;;;;;7.76;100.00;101741.88;5032246;28;20037;-63
2022/11/10 03:18:22;;;;;;;25.45;14.52;;;;;;;7.73;100.00;101744.34;5050187;28;20036;-64
2022/11/10 03:20:48;;;;;;;23.85;14.40;;;;;;;7.76;100.00;101747.41;5050442;28;20053;-63
2022/11/10 03:23:15;;;;;;;23.67;14.50;;;;;;;7.74;100.00;101757.03;5050734;28;20325;-63
2022/11/10 03:25:41;;;;;;;24.88;14.25;;;;;;;7.72;100.00;101760.03;5050691;28;20059;-64
2022/11/10 03:28:06;;;;;;;25.30;14.20;;;;;;;7.74;100.00;101779.06;5050441;28;20146;-64
2022/11/10 03:30:31;;;;;;;27.02;14.13;;;;;;;7.72;100.00;101775.75;5050370;28;20032;-66
2022/11/10 03:32:57;;;;;;;23.05;13.88;;;;;;;7.69;100.00;101774.34;5047310;28;20464;-64
2022/11/10 03:35:22;;;;;;;23.55;14.20;;;;;;;7.68;100.00;101775.44;5050646;28;20036;-63
2022/11/10 03:37:47;;;;;;;23.50;14.13;;;;;;;7.70;100.00;101781.50;5050853;28;20028;-64
2022/11/10 03:40:12;;;;;;;22.33;14.32;;;;;;;7.66;100.00;101788.63;5050805;28;20031;-62
2022/11/10 03:42:45;;;;;;;24.02;14.35;;;;;;;7.60;100.00;101785.00;5050508;28;20399;-62
2022/11/10 03:45:12;;;;;;;24.27;14.10;;;;;;;7.55;100.00;101790.50;5050442;28;20021;-61
2022/11/10 03:47:38;;;;;;;22.70;13.80;;;;;;;7.56;100.00;101800.38;5050430;28;20049;-62
2022/11/10 03:50:04;;;;;;;20.75;13.73;;;;;;;7.56;100.00;101805.88;5050728;28;20025;-63
2022/11/10 03:52:30;;;;;;;23.95;14.00;;;;;;;7.57;100.00;101803.97;5051016;28;20029;-62
2022/11/10 03:54:55;;;;;;;22.63;13.52;;;;;;;7.58;100.00;101806.47;5050721;28;20435;-62
2022/11/10 03:57:20;;;;;;;24.08;13.43;;;;;;;7.54;100.00;101815.50;5050671;28;20070;-62
2022/11/10 03:59:46;;;;;;;25.33;13.93;;;;;;;7.56;100.00;101814.16;5050187;28;20376;-63
2022/11/10 04:02:11;;;;;;;24.92;13.77;;;;;;;7.54;100.00;101810.00;5050166;28;20105;-63
2022/11/10 04:10:04;;;;;;;;;;;;;;;7.52;100.00;101807.53;5051477;28;20119;-61
2022/11/10 04:18:19;;;;;;;22.25;12.30;;;;;;;7.42;100.00;101840.47;5050434;28;20033;-62
2022/11/10 04:20:43;;;;;;;23.65;13.25;;;;;;;7.40;100.00;101839.88;5049933;28;20135;-63
2022/11/10 04:23:26;;;;;;;23.23;13.00;;;;;;;7.41;100.00;101847.91;5050133;28;20762;-62
2022/11/10 04:28:38;;;;;;;20.20;13.02;;;;;;;7.36;100.00;101856.09;5052641;28;20418;-62
2022/11/10 04:31:04;;;;;;;24.17;13.50;;;;;;;7.36;100.00;101858.03;5053913;28;20445;-63
2022/11/10 04:33:30;;;;;;;23.70;12.60;;;;;;;7.35;100.00;101865.44;5053837;28;20028;-62
2022/11/10 04:35:55;;;;;;;21.58;13.13;;;;;;;7.34;100.00;101872.03;5053858;28;20086;-62
2022/11/10 04:38:20;;;;;;;24.27;13.82;;;;;;;7.29;100.00;101881.06;5054107;28;20093;-61
2022/11/10 04:40:45;;;;;;;22.67;14.18;;;;;;;7.33;100.00;101886.88;5054060;28;20024;-61
2022/11/10 04:43:11;;;;;;;27.63;14.63;;;;;;;7.33;100.00;101887.72;5053877;28;20041;-63
2022/11/10 04:45:36;;;;;;;26.67;14.45;;;;;;;7.31;100.00;101892.66;5035928;28;20044;-62
2022/11/10 04:48:01;;;;;;;23.63;14.23;;;;;;;7.29;100.00;101892.09;5053959;28;20031;-62
2022/11/10 04:50:27;;;;;;;23.02;14.00;;;;;;;7.26;100.00;101903.63;5035583;28;20386;-62
2022/11/10 04:52:52;;;;;;;24.63;15.18;;;;;;;7.25;100.00;101899.22;5053384;28;20177;-62
2022/11/10 04:55:17;;;;;;;24.67;14.15;;;;;;;7.25;100.00;101907.47;5053209;28;20492;-62
2022/11/10 04:57:42;;;;;;;24.85;14.10;;;;;;;7.23;100.00;101912.38;5053353;28;20025;-62
2022/11/10 05:00:09;;;;;;;24.10;13.48;;;;;;;7.19;100.00;101913.97;5053861;28;20029;-62
2022/11/10 05:02:35;;;;;;;25.42;14.68;;;;;;;7.21;100.00;101924.75;5035576;28;20017;-63
2022/11/10 05:05:00;;;;;;;25.63;14.38;;;;;;;7.16;100.00;101917.25;5035400;28;20047;-63
2022/11/10 05:07:25;;;;;;;26.95;14.73;;;;;;;7.16;100.00;101909.00;5053533;28;20025;-63
2022/11/10 05:09:51;;;;;;;22.50;13.82;;;;;;;7.12;100.00;101918.84;5053442;28;20448;-63
2022/11/10 05:12:16;;;;;;;26.92;14.38;;;;;;;7.10;100.00;101913.63;5053305;28;20028;-62
2022/11/10 05:14:41;;;;;;;24.25;14.35;;;;;;;7.11;100.00;101917.19;5053309;28;20082;-62
2022/11/10 05:17:06;;;;;;;25.83;14.85;;;;;;;7.10;100.00;101918.28;5053065;28;20025;-62
2022/11/10 05:19:32;;;;;;;24.33;14.50;;;;;;;7.07;100.00;101918.81;5052782;28;20424;-63
2022/11/10 05:21:57;;;;;;;27.67;14.93;;;;;;;7.05;100.00;101918.22;5052036;28;20037;-64
2022/11/10 05:24:22;;;;;;;26.83;14.57;;;;;;;7.02;100.00;101912.13;5051222;28;20025;-61
2022/11/10 05:26:47;;;;;;;28.23;15.25;;;;;;;7.00;100.00;101921.75;5053361;28;20036;-62
2022/11/10 05:29:14;;;;;;;23.83;14.05;;;;;;;7.00;100.00;101919.81;5053188;28;20522;-63
2022/11/10 05:31:39;;;;;;;25.38;13.98;;;;;;;6.97;100.00;101916.75;5053054;28;20107;-64
2022/11/10 05:34:04;;;;;;;25.30;14.18;;;;;;;6.96;100.00;101920.56;5052827;28;20028;-63
2022/11/10 05:36:30;;;;;;;24.77;15.07;;;;;;;6.96;100.00;101918.66;5052554;28;20025;-62
2022/11/10 05:38:55;;;;;;;25.52;14.23;;;;;;;6.96;100.00;101921.41;5053183;28;20021;-63
2022/11/10 05:41:20;;;;;;;25.00;14.10;;;;;;;6.92;100.00;101923.00;5050422;28;20624;-63
2022/11/10 05:43:46;;;;;;;26.80;14.25;;;;;;;6.93;100.00;101923.84;5048420;28;20037;-63
2022/11/10 05:46:11;;;;;;;23.75;14.80;;;;;;;6.94;100.00;101931.03;5052220;28;20052;-63
2022/11/10 05:48:36;;;;;;;29.05;14.70;;;;;;;6.98;100.00;101934.91;5050889;28;20048;-64
2022/11/10 05:51:02;;;;;;;25.20;13.55;;;;;;;6.98;100.00;101933.00;5052386;28;20051;-62
2022/11/10 05:53:27;;;;;;;26.48;14.50;;;;;;;6.99;100.00;101937.41;5052009;28;20053;-63
2022/11/10 05:55:52;;;;;;;22.45;13.43;;;;;;;6.96;100.00;101948.94;5052141;28;20029;-62
2022/11/10 05:58:18;;;;;;;25.50;13.50;;;;;;;6.94;100.00;101947.53;5051879;28;20040;-63
2022/11/10 06:00:43;;;;;;;24.58;14.10;;;;;;;6.85;100.00;101936.94;5051835;28;20029;-64
2022/11/10 06:03:14;;;;;;;24.52;14.00;;;;;;;6.81;100.00;101940.44;5052713;28;20365;-63
2022/11/10 06:05:39;;;;;;;25.55;14.52;;;;;;;6.94;100.00;101947.53;5051993;28;20021;-63
2022/11/10 06:08:05;;;;;;;24.45;13.52;;;;;;;6.94;100.00;101958.53;5051941;28;20388;-62
2022/11/10 06:10:32;;;;;;;28.77;14.38;;;;;;;6.86;100.00;101957.88;5051887;28;20032;-62
2022/11/10 06:12:58;;;;;;;25.25;14.75;;;;;;;6.93;100.00;101965.13;5051800;28;20037;-62
2022/11/10 06:15:24;;;;;;;27.15;14.07;;;;;;;6.93;100.00;101959.63;5051591;28;20033;-62
2022/11/10 06:17:50;;;;;;;25.42;14.60;;;;;;;6.97;100.00;101966.25;5048876;28;20063;-62
2022/11/10 06:20:16;;;;;;;25.70;14.40;;;;;;;6.95;100.00;101971.19;5051129;28;20041;-62
2022/11/10 06:22:42;;;;;;;25.60;13.93;;;;;;;6.93;100.00;101970.63;5050851;28;20476;-61
2022/11/10 06:25:09;;;;;;;25.63;13.68;;;;;;;6.93;100.00;101973.38;5050689;28;20039;-63
2022/11/10 06:27:34;;;;;;;26.67;14.35;;;;;;;6.92;100.00;101971.72;5050639;28;20100;-62
2022/11/10 06:29:59;;;;;;;27.52;14.18;;;;;;;6.89;100.00;101974.94;5050778;28;20135;-63
2022/11/10 06:32:25;;;;;;;27.65;13.80;;;;;;;6.87;100.00;101983.47;5050776;28;20059;-63
2022/11/10 06:34:50;;;;;;;24.60;13.73;;;;;;;6.85;100.00;101989.19;5050615;28;20132;-63
2022/11/10 06:37:15;;;;;;;25.25;13.27;;;;;;;6.84;100.00;102000.47;5050944;28;20021;-63
2022/11/10 06:39:41;;;;;;;23.48;13.20;;;;;;;6.81;100.00;101993.56;5050984;28;20025;-62
2022/11/10 06:42:06;;;;;;;24.10;13.55;;;;;;;6.80;100.00;102000.16;5051354;28;20028;-62
2022/11/10 06:44:31;;;;;;;25.90;13.65;;;;;;;6.78;100.00;102012.50;5051065;28;20461;-62
2022/11/10 06:46:56;;;;;;;22.67;13.57;;;;;;;6.79;100.00;102014.16;5050798;28;20071;-62
2022/11/10 06:49:22;;;;;;;25.63;14.05;;;;;;;6.75;100.00;102027.59;5049765;28;20032;-62
2022/11/10 06:51:47;;;;;;;26.65;13.77;;;;;;;6.77;100.00;102033.66;5050186;28;20033;-62
2022/11/10 06:54:12;;;;;;;24.95;13.90;;;;;;;6.76;100.00;102037.47;5050175;28;20069;-63
2022/11/10 06:56:37;;;;;;;25.65;14.07;;;;;;;6.80;100.00;102032.34;5049613;28;20067;-60
2022/11/10 06:59:03;;;;;;;27.60;14.35;;;;;;;6.79;100.00;102038.91;5049634;28;20025;-61
2022/11/10 07:01:28;;;;;;;25.25;14.57;;;;;;;6.81;100.00;102040.31;5049600;28;20057;-63
2022/11/10 07:03:54;;;;;;;24.98;13.60;;;;;;;6.81;100.00;102054.06;5049544;28;20055;-62
2022/11/10 07:06:20;;;;;;;26.50;14.75;;;;;;;6.81;100.00;102044.97;5049134;28;20036;-62
2022/11/10 07:08:46;;;;;;;22.98;13.93;;;;;;;6.83;100.00;102048.31;5050070;28;20082;-62
2022/11/10 07:11:11;;;;;;;23.00;13.75;;;;;;;6.82;100.00;102050.25;5050856;28;20055;-64
2022/11/10 07:13:36;;;;;;;23.42;13.73;;;;;;;6.83;100.00;102056.56;5048584;28;20025;-63
2022/11/10 07:16:08;;;;;;;27.10;13.43;;;;;;;6.85;100.00;102068.16;5050019;28;20411;-62
2022/11/10 07:18:34;;;;;;;24.27;13.05;;;;;;;6.89;100.00;102076.72;5049740;28;20633;-61
2022/11/10 07:21:04;;;;;;;24.35;13.38;;;;;;;6.94;100.00;102071.34;5048644;28;20079;-61
2022/11/10 07:23:31;;;;;;;26.60;13.00;;;;;;;6.94;100.00;102071.34;5049897;28;20033;-62
2022/11/10 07:25:58;;;;;;;25.00;13.32;;;;;;;6.99;100.00;102085.16;5049604;28;20025;-62
2022/11/10 07:28:23;;;;;;;25.63;13.23;;;;;;;7.02;100.00;102087.41;5038833;28;20036;-62
2022/11/10 07:30:48;;;;;;;27.13;13.35;;;;;;;7.08;100.00;102091.91;5050452;28;20041;-62
2022/11/10 07:33:14;;;;;;;23.35;12.82;;;;;;;7.07;100.00;102095.72;5050755;28;20025;-63
2022/11/10 07:35:40;;;;;;;24.35;12.98;;;;;;;7.12;100.00;102101.31;5031995;28;20433;-61
2022/11/10 07:38:11;;;;;;;26.92;13.40;;;;;;;7.06;100.00;102091.31;5050193;28;20040;-61
2022/11/10 07:40:37;;;;;;;26.63;13.35;;;;;;;7.17;100.00;102093.13;5050001;28;20025;-63
2022/11/10 07:43:02;;;;;;;24.42;12.77;;;;;;;7.20;100.00;102090.97;5050580;28;20082;-62
2022/11/10 07:45:28;;;;;;;25.50;12.63;;;;;;;7.26;100.00;102095.44;5050554;28;20463;-61
2022/11/10 07:48:01;;;;;;;27.13;12.45;;;;;;;7.32;100.00;102094.47;5032213;28;20151;-63
2022/11/10 07:50:27;;;;;;;25.10;13.50;;;;;;;7.35;100.00;102099.44;5050025;28;20472;-63
2022/11/10 07:53:01;;;;;;;24.15;12.65;;;;;;;7.40;100.00;102104.19;5048855;28;20500;-62
2022/11/10 07:55:27;;;;;;;29.55;12.93;;;;;;;7.38;100.00;102084.31;5048944;28;20034;-62
2022/11/10 07:57:57;;;;;;;23.15;12.38;;;;;;;7.48;100.00;102104.59;5049855;28;20031;-62
2022/11/10 08:00:22;;;;;;;30.05;13.18;;;;;;;7.53;100.00;102103.84;5051955;28;20051;-62
2022/11/10 08:02:47;;;;;;;22.67;12.40;;;;;;;7.60;100.00;102117.41;5054155;28;20581;-62
2022/11/10 08:05:13;;;;;;;24.52;12.60;;;;;;;7.69;100.00;102121.41;5054065;28;20029;-62
2022/11/10 08:07:39;;;;;;;27.65;12.00;;;;;;;7.79;100.00;102128.94;5053354;28;20430;-63
2022/11/10 08:10:05;;;;;;;28.38;11.82;;;;;;;7.84;100.00;102126.25;5051282;28;20139;-63
2022/11/10 08:12:31;;;;;;;25.83;12.68;;;;;;;7.91;100.00;102128.81;5053629;28;20047;-63
2022/11/10 08:14:56;;;;;;;27.42;12.77;;;;;;;7.94;100.00;102133.81;5053656;28;20131;-63
2022/11/10 08:17:21;;;;;;;22.90;12.52;;;;;;;7.96;100.00;102146.25;5053824;28;20052;-61
2022/11/10 08:19:47;;;;;;;25.67;12.48;;;;;;;8.07;100.00;102154.66;5053702;28;20064;-63
2022/11/10 08:22:12;;;;;;;25.73;12.48;;;;;;;8.14;100.00;102151.69;5053529;28;20021;-62
2022/11/10 08:24:37;;;;;;;26.40;12.80;;;;;;;8.15;100.00;102140.41;5052960;28;20410;-61
2022/11/10 08:27:03;;;;;;;27.67;12.93;;;;;;;8.22;100.00;102154.81;5053962;28;20025;-62
2022/11/10 08:29:28;;;;;;;25.77;12.38;;;;;;;8.28;100.00;102147.44;5042038;28;20030;-61
2022/11/10 08:31:53;;;;;;;24.38;11.43;;;;;;;8.34;100.00;102157.44;5034487;28;20029;-62
2022/11/10 08:34:20;;;;;;;25.75;12.25;;;;;;;8.37;100.00;102156.91;5034509;28;20076;-62
2022/11/10 08:36:45;;;;;;;24.25;12.13;;;;;;;8.41;100.00;102149.81;5034765;28;20065;-61
2022/11/10 08:39:11;;;;;;;27.65;13.07;;;;;;;8.50;100.00;102150.19;5033965;28;20465;-62
2022/11/10 08:41:36;;;;;;;25.75;12.98;;;;;;;8.56;100.00;102151.06;5034049;28;20033;-62
2022/11/10 08:44:01;;;;;;;22.27;11.70;;;;;;;8.61;100.00;102153.91;5034079;28;20053;-62
2022/11/10 08:46:27;;;;;;;22.30;11.40;;;;;;;8.71;100.00;102159.53;5034338;28;20108;-62
2022/11/10 08:48:52;;;;;;;25.45;12.48;;;;;;;8.76;100.00;102160.66;5034248;28;20029;-62
2022/11/10 08:51:17;;;;;;;26.48;12.30;;;;;;;8.83;100.00;102172.31;5034182;28;20017;-62
2022/11/10 08:53:42;;;;;;;24.45;12.15;;;;;;;8.89;100.00;102162.97;5034400;28;20057;-62
2022/11/10 08:56:08;;;;;;;24.00;12.05;;;;;;;8.94;100.00;102171.28;5034350;28;20021;-62
2022/11/10 08:58:33;;;;;;;23.27;11.85;;;;;;;9.00;100.00;102173.03;5034657;28;20068;-62
2022/11/10 09:00:59;;;;;;;22.95;11.63;;;;;;;9.11;100.00;102173.13;5015993;28;20204;-61
2022/11/10 09:03:24;;;;;;;22.40;12.05;;;;;;;9.16;100.00;102179.47;5033697;28;20388;-62
2022/11/10 09:05:51;;;;;;;27.42;12.32;;;;;;;9.20;100.00;102179.81;5030476;28;20465;-62
2022/11/10 09:08:17;;;;;;;23.13;11.00;;;;;;;9.26;100.00;102188.97;5033863;28;20044;-62
2022/11/10 09:10:46;;;;;;;22.33;11.10;;;;;;;9.30;100.00;102190.09;5032683;28;20105;-58
2022/11/10 09:13:13;;;;;;;26.73;12.20;;;;;;;9.29;100.00;102178.22;5033637;28;20468;-63
2022/11/10 09:15:40;;;;;;;23.65;12.43;;;;;;;9.35;100.00;102204.78;5033414;28;20091;-61
2022/11/10 09:18:07;;;;;;;26.63;12.38;;;;;;;9.41;100.00;102194.59;5033544;28;20037;-62
2022/11/10 09:20:34;;;;;;;23.38;11.73;;;;;;;9.36;100.00;102191.78;5032628;28;20054;-63
2022/11/10 09:23:08;;;;;;;26.35;12.07;;;;;;;9.50;100.00;102209.59;5046748;28;20033;-62
2022/11/10 09:25:34;;;;;;;26.25;13.50;;;;;;;9.52;100.00;102201.88;5050387;28;20080;-62
2022/11/10 09:28:00;;;;;;;25.50;12.15;;;;;;;9.58;100.00;102213.78;5033835;28;20055;-62
2022/11/10 09:30:25;;;;;;;26.67;12.52;;;;;;;9.66;100.00;102209.69;5050519;28;20433;-62
2022/11/10 09:32:54;;;;;;;22.60;12.50;;;;;;;9.71;100.00;102208.88;5042433;28;20469;-62
2022/11/10 09:35:21;;;;;;;24.63;12.95;;;;;;;9.76;100.00;102206.16;5048119;28;20037;-62
2022/11/10 09:37:46;;;;;;;21.48;12.45;;;;;;;9.80;100.00;102212.81;5045442;28;20028;-61
2022/11/10 09:40:18;;;;;;;24.20;13.02;;;;;;;9.77;100.00;102196.78;5044016;28;20353;-61
2022/11/10 09:42:45;;;;;;;21.98;11.73;;;;;;;9.92;100.00;102209.84;5037902;28;20083;-61
2022/11/10 09:45:24;;;;;;;27.00;12.68;;;;;;;9.81;100.00;102195.13;5042193;28;20029;-62
2022/11/10 09:48:24;;;;;;;25.70;12.77;;;;;;;10.02;100.00;102220.94;5041551;28;20025;-61
2022/11/10 09:51:07;;;;;;;24.77;11.88;;;;;;;10.07;100.00;102222.91;5020985;28;20036;-61
2022/11/10 09:53:40;;;;;;;25.02;11.90;;;;;;;10.12;100.00;102215.47;5039295;28;20092;-61
2022/11/10 09:56:08;;;;;;;24.15;11.70;;;;;;;10.20;100.00;102216.06;5031589;28;20044;-62
2022/11/10 09:58:40;;;;;;;27.08;11.88;;;;;;;10.26;100.00;102221.31;5031404;28;20064;-60
2022/11/10 10:01:43;;;;;;;23.25;11.52;;;;;;;10.38;100.00;102218.38;5031660;28;20090;-61
2022/11/10 10:04:14;;;;;;;22.25;11.80;;;;;;;10.43;100.00;102220.34;5030796;28;20087;-62
2022/11/10 10:07:17;;;;;;;24.75;11.65;;;;;;;10.57;100.00;102215.94;5031135;28;20472;-62
2022/11/10 10:09:53;;;;;;;20.10;11.40;;;;;;;10.59;100.00;102212.88;5029268;28;20037;-62
2022/11/10 10:12:59;;;;;;;22.70;11.30;;;;;;;10.71;100.00;102227.31;5030701;28;20112;-62
2022/11/10 10:15:39;;;;;;;23.55;11.75;;;;;;;10.78;100.00;102229.81;5013520;28;20380;-62
2022/11/10 10:18:17;;;;;;;22.00;10.98;;;;;;;10.89;100.00;102233.44;5031091;28;20026;-62
2022/11/10 10:20:57;;;;;;;22.70;11.90;;;;;;;10.91;100.00;102236.78;5030759;28;20057;-62
2022/11/10 10:23:33;;;;;;;27.13;11.48;;;;;;;10.98;100.00;102248.41;5030128;28;20091;-62
2022/11/10 10:25:59;;;;;;;24.88;11.55;;;;;;;11.07;100.00;102248.72;5013058;28;20144;-63
2022/11/10 10:28:29;;;;;;;21.42;11.13;;;;;;;11.12;100.00;102245.09;5029773;28;20103;-61
2022/11/10 10:31:08;;;;;;;23.92;11.25;;;;;;;11.19;99.75;102253.97;5029809;28;20033;-61
2022/11/10 10:33:34;;;;;;;23.33;11.23;;;;;;;11.20;99.92;102256.47;5029755;28;20480;-62
2022/11/10 10:36:08;;;;;;;24.65;11.77;;;;;;;11.27;99.92;102261.72;5029727;28;20025;-62
2022/11/10 10:38:38;;;;;;;22.55;11.80;;;;;;;11.35;99.15;102265.91;5029494;28;20034;-62
2022/11/10 10:41:20;;;;;;;23.15;12.55;;;;;;;11.37;99.25;102264.50;5029751;28;20040;-62
2022/11/10 10:43:47;;;;;;;22.05;11.30;;;;;;;11.47;98.15;102276.69;5030342;28;20039;-61
2022/11/10 10:46:19;;;;;;;24.25;11.30;;;;;;;11.51;97.88;102284.19;5049647;28;20045;-63
2022/11/10 10:48:44;;;;;;;19.80;10.73;;;;;;;11.57;97.99;102290.56;5050117;28;20028;-62
2022/11/10 10:51:27;;;;;;;20.45;10.40;;;;;;;11.65;97.01;102295.53;5050721;28;20032;-61
2022/11/10 10:53:52;;;;;;;22.10;11.07;;;;;;;11.70;96.39;102298.31;5050629;28;20099;-61
2022/11/10 10:56:21;;;;;;;22.05;11.18;;;;;;;11.77;96.90;102278.63;5050338;28;20028;-61
2022/11/10 10:58:57;;;;;;;21.58;11.02;;;;;;;11.87;95.86;102288.88;5047097;28;20082;-61
2022/11/10 11:01:31;;;;;;;22.08;11.00;;;;;;;11.90;96.02;102295.78;5050496;28;20037;-61
2022/11/10 11:03:58;;;;;;;22.52;10.98;;;;;;;11.96;94.79;102284.41;5050254;28;20057;-61
2022/11/10 11:06:29;;;;;;;22.83;11.55;;;;;;;12.02;94.63;102291.63;5050366;28;20056;-61
2022/11/10 11:09:08;;;;;;;22.83;11.00;;;;;;;12.09;94.98;102288.59;5050969;28;20548;-61
2022/11/10 11:11:39;;;;;;;21.77;10.40;;;;;;;12.10;94.36;102265.28;5050466;28;20037;-61
2022/11/10 11:14:18;;;;;;;24.38;10.15;;;;;;;12.26;93.24;102270.78;5049829;28;20118;-61
2022/11/10 11:16:51;;;;;;;23.60;10.20;;;;;;;12.30;91.20;102278.25;5050290;28;20056;-61
2022/11/10 11:19:20;;;;;;;22.75;10.55;;;;;;;12.20;92.00;102250.53;5043818;28;20043;-62
2022/11/10 11:22:00;;;;;;;21.65;10.40;;;;;;;12.42;92.33;102279.88;5049800;28;20033;-62
2022/11/10 11:24:41;;;;;;;24.52;10.10;;;;;;;12.45;91.21;102271.00;5049494;28;20491;-62
2022/11/10 11:27:17;;;;;;;19.60;10.07;;;;;;;12.60;89.83;102275.66;5047963;28;20048;-60